Time;durP1;ratioP1;P1;durP2;ratioP2;P2;SDS_P1;SDS_P2;PMS_P1;PMS_P2;Temp;Humidity;BMP_temperature;BMP_pressure;BME280_temperature;BME280_humidity;BME280_pressure;Samples;Min_cycle;Max_cycle;Signal;HPM_P1;HPM_P2
2021/03/31 00:01:24;;;;;;;6.93;3.90;;;17.90;55.60;;;;;;4992298;28;20032;-72
2021/03/31 00:03:50;;;;;;;7.10;3.55;;;17.90;55.70;;;;;;4992860;28;20076;-72
2021/03/31 00:06:16;;;;;;;9.52;3.95;;;17.90;55.70;;;;;;4992028;28;20109;-72
2021/03/31 00:08:42;;;;;;;8.55;3.97;;;17.80;55.40;;;;;;4992895;28;20460;-71
2021/03/31 00:11:09;;;;;;;7.55;3.80;;;17.80;55.30;;;;;;4992927;28;20099;-71
2021/03/31 00:13:34;;;;;;;13.00;4.53;;;17.90;55.50;;;;;;4993138;28;20168;-72
2021/03/31 00:16:00;;;;;;;8.98;4.28;;;17.80;55.60;;;;;;4993015;28;20087;-72
2021/03/31 00:18:25;;;;;;;7.60;3.80;;;17.80;55.70;;;;;;4992842;28;20038;-72
2021/03/31 00:20:52;;;;;;;8.85;4.25;;;17.80;55.80;;;;;;4993015;28;20037;-72
2021/03/31 00:23:24;;;;;;;7.65;4.18;;;17.80;55.80;;;;;;4993241;28;20018;-71
2021/03/31 00:25:50;;;;;;;8.45;3.97;;;17.80;55.90;;;;;;4992207;28;20080;-72
2021/03/31 00:28:16;;;;;;;8.40;4.15;;;17.80;56.00;;;;;;5016517;22;20038;-71
2021/03/31 00:30:42;;;;;;;7.60;3.60;;;17.80;55.90;;;;;;4992950;28;20030;-70
2021/03/31 00:33:09;;;;;;;8.77;3.90;;;17.70;56.00;;;;;;4992830;28;20049;-70
2021/03/31 00:35:35;;;;;;;8.10;4.00;;;17.70;56.00;;;;;;4992727;28;20058;-70
2021/03/31 00:38:01;;;;;;;7.43;3.75;;;17.80;56.10;;;;;;4991579;28;20061;-69
2021/03/31 00:40:29;;;;;;;8.25;3.80;;;17.70;56.10;;;;;;4991340;28;20113;-71
2021/03/31 00:42:54;;;;;;;7.63;4.20;;;17.80;56.20;;;;;;4991155;28;20026;-71
2021/03/31 00:45:20;;;;;;;8.23;3.92;;;17.70;56.10;;;;;;4990941;28;20396;-70
2021/03/31 00:47:46;;;;;;;9.27;3.92;;;17.70;56.20;;;;;;4991106;28;20026;-69
2021/03/31 00:50:17;;;;;;;7.35;4.45;;;17.70;56.10;;;;;;4992309;28;20446;-70
2021/03/31 00:52:43;;;;;;;7.80;3.97;;;17.70;56.20;;;;;;4992557;28;20019;-70
2021/03/31 00:55:14;;;;;;;7.85;3.75;;;17.70;56.30;;;;;;4992159;28;20034;-69
2021/03/31 00:57:41;;;;;;;7.95;4.18;;;17.70;56.20;;;;;;4992432;28;20474;-72
2021/03/31 01:00:08;;;;;;;7.50;3.97;;;17.60;56.20;;;;;;4990702;28;20035;-72
2021/03/31 01:02:34;;;;;;;8.07;4.30;;;17.60;56.10;;;;;;4991632;28;20033;-70
2021/03/31 01:04:59;;;;;;;8.40;4.50;;;17.70;56.20;;;;;;4992114;28;20030;-70
2021/03/31 01:07:25;;;;;;;7.93;4.43;;;17.60;56.10;;;;;;4992626;28;20053;-70
2021/03/31 01:09:53;;;;;;;8.88;4.05;;;17.60;56.00;;;;;;4991836;28;20042;-70
2021/03/31 01:12:37;;;;;;;9.30;3.97;;;17.60;56.20;;;;;;4992402;28;20113;-70
2021/03/31 01:15:11;;;;;;;7.22;3.90;;;17.60;56.40;;;;;;4990274;28;20092;-69
2021/03/31 01:18:09;;;;;;;8.43;4.47;;;17.60;56.30;;;;;;4992315;28;20037;-69
2021/03/31 01:21:11;;;;;;;7.78;4.30;;;17.60;56.40;;;;;;4990864;28;20519;-69
2021/03/31 01:24:14;;;;;;;9.32;4.20;;;17.50;56.30;;;;;;4979763;28;20046;-70
2021/03/31 01:26:48;;;;;;;8.07;4.80;;;17.60;56.50;;;;;;4991779;28;20030;-69
2021/03/31 01:29:35;;;;;;;8.38;4.38;;;17.60;56.40;;;;;;4990447;28;20446;-72
2021/03/31 01:32:19;;;;;;;8.05;4.18;;;17.50;56.40;;;;;;4991835;28;20518;-69
2021/03/31 01:34:50;;;;;;;7.57;4.47;;;17.50;56.40;;;;;;4990399;28;20061;-70
2021/03/31 01:37:30;;;;;;;7.78;4.47;;;17.50;56.40;;;;;;4990785;28;20036;-69
2021/03/31 01:39:58;;;;;;;9.93;4.30;;;17.50;56.40;;;;;;4991313;28;20042;-71
2021/03/31 01:42:28;;;;;;;8.20;4.38;;;17.50;56.50;;;;;;4991913;28;20042;-69
2021/03/31 01:44:59;;;;;;;7.47;4.53;;;17.50;56.60;;;;;;4991608;28;20049;-70
2021/03/31 01:47:29;;;;;;;7.32;4.40;;;17.50;56.50;;;;;;4991585;28;20019;-70
2021/03/31 01:49:55;;;;;;;8.30;4.50;;;17.50;56.50;;;;;;4990572;28;20065;-71
2021/03/31 01:52:22;;;;;;;7.95;4.50;;;17.50;56.60;;;;;;4991525;28;20068;-70
2021/03/31 01:54:48;;;;;;;7.32;4.28;;;17.40;56.40;;;;;;4991574;28;20118;-70
2021/03/31 01:57:14;;;;;;;9.55;4.72;;;17.50;56.40;;;;;;4991632;28;20133;-70
2021/03/31 01:59:43;;;;;;;10.35;4.85;;;17.50;56.40;;;;;;4990713;28;20042;-70
2021/03/31 02:02:11;;;;;;;8.40;4.30;;;17.40;56.40;;;;;;4991461;28;20447;-70
2021/03/31 02:04:39;;;;;;;7.95;4.32;;;17.40;56.40;;;;;;4991466;28;20027;-70
2021/03/31 02:07:06;;;;;;;8.43;4.35;;;17.50;56.50;;;;;;4991858;28;20484;-70
2021/03/31 02:09:36;;;;;;;8.65;4.47;;;17.40;56.50;;;;;;4991083;28;20042;-72
2021/03/31 02:12:02;;;;;;;8.02;4.80;;;17.40;56.50;;;;;;4991559;28;20110;-69
2021/03/31 02:14:31;;;;;;;8.13;4.72;;;17.40;56.60;;;;;;4990099;28;20037;-70
2021/03/31 02:16:58;;;;;;;9.68;5.13;;;17.40;56.50;;;;;;4991845;28;20026;-70
2021/03/31 02:19:24;;;;;;;8.65;4.88;;;17.40;56.50;;;;;;4991585;28;20026;-70
2021/03/31 02:21:51;;;;;;;8.38;4.63;;;17.40;56.40;;;;;;4990424;28;20496;-71
2021/03/31 02:24:21;;;;;;;8.82;5.15;;;17.40;56.50;;;;;;4991248;28;20559;-71
2021/03/31 02:26:48;;;;;;;8.32;4.82;;;17.40;56.40;;;;;;4972292;28;20114;-70
2021/03/31 02:29:13;;;;;;;7.50;4.70;;;17.40;56.50;;;;;;4984670;28;20027;-70
2021/03/31 02:31:41;;;;;;;8.90;4.60;;;17.40;56.50;;;;;;4991545;28;20061;-71
2021/03/31 02:34:07;;;;;;;8.57;4.93;;;17.40;56.40;;;;;;4991493;28;20026;-71
2021/03/31 02:36:34;;;;;;;8.43;4.80;;;17.40;56.60;;;;;;4993774;28;20033;-70
2021/03/31 02:39:01;;;;;;;8.75;4.32;;;17.40;56.60;;;;;;4990598;28;20038;-70
2021/03/31 02:41:28;;;;;;;12.30;5.38;;;17.30;56.70;;;;;;4992827;28;20050;-70
2021/03/31 02:43:57;;;;;;;8.05;4.75;;;17.40;57.00;;;;;;4994315;28;20076;-70
2021/03/31 02:46:24;;;;;;;8.43;4.72;;;17.30;57.00;;;;;;4993569;28;20022;-70
2021/03/31 02:48:51;;;;;;;7.82;4.70;;;17.30;57.10;;;;;;4994298;28;20108;-70
2021/03/31 02:51:19;;;;;;;8.95;4.70;;;17.30;57.10;;;;;;4993142;28;20098;-70
2021/03/31 02:53:45;;;;;;;8.27;4.50;;;17.30;57.10;;;;;;4994630;28;20054;-70
2021/03/31 02:56:12;;;;;;;8.27;4.28;;;17.30;57.10;;;;;;4991201;28;20080;-70
2021/03/31 02:58:39;;;;;;;8.65;4.82;;;17.30;57.10;;;;;;5004557;28;20034;-70
2021/03/31 03:01:06;;;;;;;7.80;4.72;;;17.30;57.10;;;;;;4994037;28;20515;-70
2021/03/31 03:03:34;;;;;;;8.15;4.70;;;17.30;57.20;;;;;;4992733;28;20518;-70
2021/03/31 03:06:00;;;;;;;8.70;4.70;;;17.30;57.30;;;;;;4993224;28;20431;-70
2021/03/31 03:08:27;;;;;;;8.05;4.80;;;17.30;57.20;;;;;;4992522;28;20114;-70
2021/03/31 03:10:57;;;;;;;8.38;4.50;;;17.20;57.30;;;;;;4993309;28;20037;-70
2021/03/31 03:13:23;;;;;;;8.18;5.00;;;17.30;57.30;;;;;;4992726;28;20373;-69
2021/03/31 03:15:49;;;;;;;8.48;4.82;;;17.30;57.30;;;;;;4994160;28;20049;-69
2021/03/31 03:18:14;;;;;;;8.35;4.70;;;17.20;57.40;;;;;;4992567;28;20117;-69
2021/03/31 03:20:40;;;;;;;8.23;5.13;;;17.20;57.30;;;;;;4993012;28;20034;-70
2021/03/31 03:23:08;;;;;;;8.55;4.72;;;17.20;57.50;;;;;;4992465;28;20026;-71
2021/03/31 03:25:34;;;;;;;8.55;4.72;;;17.20;57.50;;;;;;4994382;28;20049;-70
2021/03/31 03:28:01;;;;;;;7.63;4.38;;;17.20;57.50;;;;;;4993618;28;20033;-71
2021/03/31 03:30:26;;;;;;;7.95;4.57;;;17.20;57.60;;;;;;4992812;28;20062;-70
2021/03/31 03:32:53;;;;;;;8.10;5.15;;;17.20;57.40;;;;;;4993730;28;20185;-71
2021/03/31 03:35:25;;;;;;;8.23;4.68;;;17.20;57.40;;;;;;4992186;28;20030;-71
2021/03/31 03:37:51;;;;;;;7.28;4.32;;;17.20;57.40;;;;;;4982359;28;20096;-69
2021/03/31 03:40:18;;;;;;;8.55;4.75;;;17.20;57.50;;;;;;4992358;28;20113;-71
2021/03/31 03:42:44;;;;;;;8.63;4.68;;;17.20;57.60;;;;;;4993676;28;20116;-70
2021/03/31 03:45:10;;;;;;;8.85;4.68;;;17.10;57.60;;;;;;4993808;28;20053;-71
2021/03/31 03:47:38;;;;;;;8.98;5.22;;;17.10;57.60;;;;;;4992869;28;20042;-70
2021/03/31 03:50:08;;;;;;;7.28;4.63;;;17.10;57.60;;;;;;4993045;28;20034;-69
2021/03/31 03:52:35;;;;;;;8.95;4.70;;;17.10;57.60;;;;;;4993528;28;20035;-70
2021/03/31 03:55:00;;;;;;;8.68;4.88;;;17.10;57.70;;;;;;4992143;28;20034;-70
2021/03/31 03:57:27;;;;;;;8.60;4.95;;;17.10;58.20;;;;;;4993562;28;20022;-70
2021/03/31 03:59:53;;;;;;;8.13;4.80;;;17.10;57.70;;;;;;4992303;28;20660;-70
2021/03/31 04:02:19;;;;;;;7.35;4.35;;;17.10;57.70;;;;;;4991197;28;20042;-69
2021/03/31 04:04:45;;;;;;;8.10;4.72;;;17.10;57.80;;;;;;4993018;28;20385;-71
2021/03/31 04:07:11;;;;;;;7.20;4.40;;;17.10;57.70;;;;;;4991670;28;20395;-70
2021/03/31 04:09:40;;;;;;;9.65;5.10;;;17.10;57.70;;;;;;4991656;28;20034;-70
2021/03/31 04:12:07;;;;;;;8.45;4.72;;;17.00;57.80;;;;;;4993411;28;20487;-70
2021/03/31 04:14:33;;;;;;;7.72;4.78;;;17.00;57.80;;;;;;4991795;28;20117;-70
2021/03/31 04:17:02;;;;;;;7.40;4.45;;;17.00;57.70;;;;;;4992952;28;20065;-70
2021/03/31 04:19:28;;;;;;;9.48;4.65;;;17.00;57.80;;;;;;4992783;28;20178;-70
2021/03/31 04:21:54;;;;;;;8.55;4.70;;;17.00;57.80;;;;;;4993223;28;20037;-71
2021/03/31 04:24:20;;;;;;;8.38;4.72;;;17.00;57.70;;;;;;4991087;28;20105;-70
2021/03/31 04:26:46;;;;;;;8.50;4.88;;;17.00;57.70;;;;;;4991147;28;20468;-71
2021/03/31 04:29:13;;;;;;;9.07;5.25;;;17.00;57.80;;;;;;4992560;28;20065;-70
2021/03/31 04:31:41;;;;;;;10.38;4.55;;;17.00;57.70;;;;;;4991856;28;20389;-72
2021/03/31 04:34:08;;;;;;;7.72;4.75;;;17.00;57.70;;;;;;4988075;28;20559;-71
2021/03/31 04:36:34;;;;;;;11.57;5.15;;;17.00;58.10;;;;;;4985709;28;20169;-71
2021/03/31 04:39:03;;;;;;;14.25;6.57;;;17.10;58.30;;;;;;4981482;28;20026;-71
2021/03/31 04:41:29;;;;;;;12.50;7.20;;;17.10;58.50;;;;;;4984110;28;20065;-70
2021/03/31 04:43:54;;;;;;;13.35;6.53;;;17.10;58.80;;;;;;4985376;28;20058;-69
2021/03/31 04:46:20;;;;;;;15.10;6.50;;;17.00;58.70;;;;;;4986502;28;20136;-71
2021/03/31 04:48:45;;;;;;;11.07;6.60;;;17.00;58.50;;;;;;4984393;28;20026;-70
2021/03/31 04:51:11;;;;;;;13.40;6.07;;;17.00;58.60;;;;;;4985876;28;20121;-70
2021/03/31 04:53:36;;;;;;;10.43;5.95;;;17.00;58.50;;;;;;4986138;28;20022;-70
2021/03/31 04:56:03;;;;;;;10.23;4.75;;;17.00;58.50;;;;;;4986781;28;20034;-71
2021/03/31 04:58:28;;;;;;;10.88;5.70;;;17.00;58.60;;;;;;4985765;28;20682;-71
2021/03/31 05:01:52;;;;;;;11.45;5.45;;;17.10;58.40;;;;;;5100790;27;20316;-71
2021/03/31 05:04:18;;;;;;;13.93;6.28;;;17.20;57.80;;;;;;5102016;28;20030;-71
2021/03/31 05:06:43;;;;;;;12.45;5.70;;;17.30;56.30;;;;;;5101827;28;20111;-69
2021/03/31 05:09:09;;;;;;;18.63;6.82;;;17.30;56.90;;;;;;5096429;28;20050;-69
2021/03/31 05:11:35;;;;;;;21.00;6.55;;;17.30;56.90;;;;;;5083282;27;20111;-70
2021/03/31 05:14:01;;;;;;;17.45;6.25;;;17.20;56.70;;;;;;5082762;28;20113;-74
2021/03/31 05:16:27;;;;;;;15.55;6.15;;;17.30;57.20;;;;;;5086879;28;20520;-69
2021/03/31 05:18:52;;;;;;;17.55;6.30;;;17.30;57.30;;;;;;5081949;28;20023;-70
2021/03/31 05:21:18;;;;;;;18.42;6.05;;;17.30;57.40;;;;;;5096782;28;20056;-72
2021/03/31 05:23:43;;;;;;;14.27;6.50;;;17.30;57.90;;;;;;5082394;28;20394;-71
2021/03/31 05:26:09;;;;;;;15.60;6.22;;;17.20;57.10;;;;;;5082916;28;20020;-71
2021/03/31 05:28:35;;;;;;;13.18;6.07;;;17.30;57.30;;;;;;5080941;28;20035;-70
2021/03/31 05:31:00;;;;;;;11.77;6.38;;;17.30;57.50;;;;;;5100116;28;20031;-72
2021/03/31 05:33:26;;;;;;;12.90;6.45;;;17.30;57.20;;;;;;5095520;28;20370;-67
2021/03/31 05:35:51;;;;;;;16.33;6.43;;;17.30;56.70;;;;;;5091385;28;20070;-71
2021/03/31 05:38:17;;;;;;;12.35;5.75;;;17.30;57.50;;;;;;5083668;28;20523;-72
2021/03/31 05:40:42;;;;;;;12.43;6.03;;;17.40;56.70;;;;;;5082298;28;20028;-71
2021/03/31 05:43:08;;;;;;;13.68;6.00;;;17.50;56.60;;;;;;5093591;28;20050;-72
2021/03/31 05:45:35;;;;;;;13.15;6.22;;;17.50;57.30;;;;;;5083087;28;20770;-71
2021/03/31 05:48:02;;;;;;;11.68;5.70;;;17.50;56.30;;;;;;5096855;28;20020;-70
2021/03/31 05:50:28;;;;;;;17.60;5.85;;;17.60;56.10;;;;;;5092518;28;20054;-71
2021/03/31 05:52:55;;;;;;;16.08;5.80;;;17.70;56.00;;;;;;5079734;28;20660;-71
2021/03/31 05:55:20;;;;;;;12.57;5.85;;;17.70;55.90;;;;;;5078139;28;20025;-73
2021/03/31 05:57:46;;;;;;;17.75;7.15;;;17.70;56.00;;;;;;5078978;28;20034;-72
2021/03/31 06:00:21;;;;;;;16.45;6.40;;;17.70;54.60;;;;;;5083382;28;20053;-71
2021/03/31 06:02:48;;;;;;;15.23;6.60;;;17.60;55.50;;;;;;5083062;28;20042;-70
2021/03/31 06:05:15;;;;;;;22.65;7.97;;;17.70;55.60;;;;;;5078828;28;20102;-72
2021/03/31 06:07:46;;;;;;;23.33;8.15;;;17.60;55.10;;;;;;5082186;28;20035;-74
2021/03/31 06:10:18;;;;;;;18.27;7.68;;;17.60;55.50;;;;;;5082211;28;20028;-71
2021/03/31 06:12:48;;;;;;;20.55;6.97;;;17.60;55.50;;;;;;5084101;28;20085;-72
2021/03/31 06:15:21;;;;;;;18.92;7.22;;;17.80;55.50;;;;;;5083969;28;20025;-73
2021/03/31 06:17:50;;;;;;;16.45;6.55;;;17.80;55.60;;;;;;5072883;28;20032;-73
2021/03/31 06:20:39;;;;;;;12.55;5.90;;;17.90;55.60;;;;;;5073245;28;20398;-72
2021/03/31 06:25:44;;;;;;;;;;;17.90;55.50;;;;;;5074961;28;20230;-71
2021/03/31 06:28:10;;;;;;;14.60;6.18;;;18.00;55.40;;;;;;5105916;22;19995;-69
2021/03/31 06:30:36;;;;;;;15.02;6.07;;;18.10;55.00;;;;;;5032340;28;20446;-71
2021/03/31 06:33:01;;;;;;;13.88;6.43;;;18.20;54.30;;;;;;5031893;28;20037;-67
2021/03/31 06:35:29;;;;;;;11.52;5.95;;;18.20;54.20;;;;;;5032152;28;20029;-69
2021/03/31 06:38:08;;;;;;;13.38;6.30;;;18.30;54.00;;;;;;5032343;28;20032;-71
2021/03/31 06:40:41;;;;;;;15.27;6.15;;;18.30;53.60;;;;;;5032357;28;20030;-68
2021/03/31 06:43:12;;;;;;;15.20;6.35;;;18.30;53.50;;;;;;5032568;28;20098;-68
2021/03/31 06:45:45;;;;;;;13.23;6.10;;;18.30;53.10;;;;;;5033718;28;20055;-68
2021/03/31 06:48:11;;;;;;;13.27;6.07;;;18.30;53.10;;;;;;5033249;28;20111;-69
2021/03/31 06:50:37;;;;;;;14.43;6.20;;;18.40;53.20;;;;;;5033522;28;20483;-71
2021/03/31 06:53:05;;;;;;;11.50;5.95;;;18.40;52.90;;;;;;5032508;28;20100;-68
2021/03/31 06:55:30;;;;;;;12.77;5.90;;;18.40;53.00;;;;;;5033389;28;20028;-71
2021/03/31 06:57:59;;;;;;;13.93;6.40;;;18.40;52.70;;;;;;5033320;28;20029;-70
2021/03/31 07:00:35;;;;;;;13.13;6.15;;;18.50;52.70;;;;;;5033048;28;20059;-72
2021/03/31 07:03:04;;;;;;;11.18;5.63;;;18.50;52.60;;;;;;5032133;28;20056;-72
2021/03/31 07:05:33;;;;;;;11.38;6.03;;;18.60;52.60;;;;;;5033278;28;20056;-72
2021/03/31 07:08:06;;;;;;;10.90;5.50;;;18.60;52.30;;;;;;5033093;28;20027;-70
2021/03/31 07:10:49;;;;;;;11.32;5.45;;;18.60;52.20;;;;;;5033305;28;20040;-72
2021/03/31 07:13:32;;;;;;;10.93;5.63;;;18.60;52.10;;;;;;5033189;28;20188;-71
2021/03/31 07:15:59;;;;;;;10.05;6.03;;;18.60;52.10;;;;;;5033113;28;20513;-71
2021/03/31 07:18:26;;;;;;;10.18;5.72;;;18.70;52.00;;;;;;5032927;28;20299;-71
2021/03/31 07:20:53;;;;;;;10.35;5.90;;;18.70;52.00;;;;;;5031861;28;20025;-71
2021/03/31 07:23:21;;;;;;;10.73;5.47;;;18.70;51.70;;;;;;5031766;28;20028;-72
2021/03/31 07:25:48;;;;;;;10.68;5.40;;;18.80;51.70;;;;;;5031890;28;20044;-71
2021/03/31 07:28:19;;;;;;;8.55;5.38;;;18.80;51.60;;;;;;5032633;28;20417;-72
2021/03/31 07:30:47;;;;;;;9.73;5.63;;;18.80;51.50;;;;;;5033030;28;20483;-72
2021/03/31 07:33:19;;;;;;;10.93;5.50;;;18.80;51.60;;;;;;5031645;28;20059;-71
2021/03/31 07:35:46;;;;;;;12.32;5.88;;;18.90;51.40;;;;;;5032875;28;20514;-71
2021/03/31 07:38:16;;;;;;;11.00;5.65;;;18.90;51.30;;;;;;5031216;28;20509;-71
2021/03/31 07:40:43;;;;;;;11.60;5.65;;;19.00;51.20;;;;;;5032215;28;20048;-72
2021/03/31 07:43:22;;;;;;;10.73;6.30;;;19.00;51.00;;;;;;5032155;28;20036;-71
2021/03/31 07:46:02;;;;;;;9.13;5.30;;;19.00;51.00;;;;;;5032377;28;20479;-72
2021/03/31 07:48:29;;;;;;;11.57;5.55;;;19.00;50.80;;;;;;5030999;28;20454;-72
2021/03/31 07:50:54;;;;;;;9.40;5.57;;;19.10;50.80;;;;;;5031135;28;20032;-71
2021/03/31 07:53:24;;;;;;;10.45;5.80;;;19.10;50.70;;;;;;5032340;28;20463;-72
2021/03/31 07:55:52;;;;;;;9.38;5.55;;;19.10;50.80;;;;;;5032292;28;20029;-69
2021/03/31 07:58:26;;;;;;;8.90;5.10;;;19.20;50.80;;;;;;5030681;28;20120;-72
2021/03/31 08:01:03;;;;;;;8.35;5.03;;;19.20;50.50;;;;;;5032594;28;20105;-72
2021/03/31 08:03:31;;;;;;;9.32;5.22;;;19.20;50.40;;;;;;5032262;28;20022;-72
2021/03/31 08:06:09;;;;;;;9.73;4.78;;;19.30;50.20;;;;;;5030835;28;20068;-70
2021/03/31 08:08:44;;;;;;;10.85;5.32;;;19.30;50.50;;;;;;5030403;28;20022;-68
2021/03/31 08:11:10;;;;;;;8.80;5.00;;;19.30;50.10;;;;;;5032143;28;20030;-74
2021/03/31 08:13:45;;;;;;;8.85;4.80;;;19.40;50.30;;;;;;5031912;28;20065;-72
2021/03/31 08:16:26;;;;;;;9.20;5.40;;;19.40;50.20;;;;;;5030658;28;20399;-71
2021/03/31 08:18:53;;;;;;;;;;;19.40;50.00;;;;;;5031969;28;20021;-72
2021/03/31 08:21:30;;;;;;;10.25;5.18;;;19.50;50.00;;;;;;5030086;28;20301;-72
2021/03/31 08:23:57;;;;;;;9.10;4.93;;;19.50;50.00;;;;;;5030599;28;20570;-71
2021/03/31 08:26:43;;;;;;;8.68;4.80;;;19.50;49.90;;;;;;5030469;28;20037;-73
2021/03/31 08:29:10;;;;;;;8.20;4.65;;;19.60;50.10;;;;;;5031348;28;20351;-71
2021/03/31 08:31:42;;;;;;;9.30;4.80;;;19.60;50.60;;;;;;5031668;28;20487;-74
2021/03/31 08:34:09;;;;;;;8.70;5.00;;;19.60;49.90;;;;;;5031717;28;20033;-72
2021/03/31 08:36:36;;;;;;;6.80;4.07;;;19.70;49.90;;;;;;5031419;28;20028;-74
2021/03/31 08:39:04;;;;;;;7.57;4.20;;;19.70;49.80;;;;;;5029939;28;20610;-72
2021/03/31 08:41:30;;;;;;;9.18;4.57;;;19.70;49.60;;;;;;5031686;28;20033;-74
2021/03/31 08:44:26;;;;;;;7.50;4.80;;;19.70;49.60;;;;;;5031527;28;20116;-75
2021/03/31 08:46:53;;;;;;;7.75;4.40;;;19.70;49.50;;;;;;5031435;28;20037;-72
2021/03/31 08:49:28;;;;;;;6.63;4.05;;;19.70;49.30;;;;;;5029923;28;20140;-72
2021/03/31 08:51:59;;;;;;;6.88;4.32;;;19.80;49.40;;;;;;5031469;28;20025;-74
2021/03/31 08:54:39;;;;;;;7.43;4.35;;;19.80;49.60;;;;;;5031483;28;20022;-74
2021/03/31 08:57:10;;;;;;;7.55;3.90;;;19.90;49.80;;;;;;5031286;28;20034;-74
2021/03/31 08:59:49;;;;;;;6.95;4.10;;;19.90;49.40;;;;;;5031071;28;20029;-72
2021/03/31 09:02:21;;;;;;;9.63;4.00;;;19.90;49.10;;;;;;5031490;28;20026;-73
2021/03/31 09:04:49;;;;;;;7.38;4.10;;;20.00;49.10;;;;;;5030132;28;20017;-74
2021/03/31 09:07:16;;;;;;;6.85;3.88;;;20.00;49.10;;;;;;5031178;28;20083;-71
2021/03/31 09:09:43;;;;;;;6.53;4.00;;;20.00;49.10;;;;;;5030973;28;20029;-71
2021/03/31 09:12:20;;;;;;;6.95;4.18;;;20.10;49.10;;;;;;5031416;28;20144;-74
2021/03/31 09:14:48;;;;;;;6.82;3.97;;;20.10;49.00;;;;;;5031264;28;20028;-74
2021/03/31 09:17:19;;;;;;;6.43;3.80;;;20.20;49.30;;;;;;5031673;28;20112;-74
2021/03/31 09:19:47;;;;;;;7.80;4.07;;;20.20;48.80;;;;;;5030759;28;20059;-70
2021/03/31 09:22:15;;;;;;;7.93;3.97;;;20.20;48.60;;;;;;5030978;28;20395;-72
2021/03/31 09:24:47;;;;;;;8.07;4.80;;;20.30;48.70;;;;;;5031175;28;20046;-73
2021/03/31 09:27:15;;;;;;;7.82;4.15;;;20.30;48.70;;;;;;5031024;28;20029;-71
2021/03/31 09:29:45;;;;;;;7.55;4.47;;;20.30;49.10;;;;;;5030892;28;20491;-74
2021/03/31 09:32:14;;;;;;;8.38;4.50;;;20.40;48.50;;;;;;5031105;28;20026;-73
2021/03/31 09:34:40;;;;;;;8.15;4.40;;;20.40;48.50;;;;;;5031007;28;20048;-73
2021/03/31 09:37:08;;;;;;;7.75;4.57;;;20.40;48.00;;;;;;5031049;28;20487;-71
2021/03/31 09:39:44;;;;;;;7.45;4.63;;;20.50;48.10;;;;;;5030826;28;20056;-74
2021/03/31 09:42:19;;;;;;;7.88;4.22;;;20.50;48.20;;;;;;5031053;28;20030;-74
2021/03/31 09:44:45;;;;;;;8.10;4.50;;;20.60;47.90;;;;;;5031020;28;20079;-71
2021/03/31 09:47:10;;;;;;;8.25;4.60;;;20.60;47.50;;;;;;5032239;28;20124;-74
2021/03/31 09:49:37;;;;;;;8.20;4.57;;;20.60;47.50;;;;;;5033267;28;20527;-73
2021/03/31 09:52:05;;;;;;;7.35;4.47;;;20.70;48.00;;;;;;5033519;28;20121;-72
2021/03/31 09:54:32;;;;;;;9.65;4.55;;;20.80;47.30;;;;;;5033237;28;20476;-74
2021/03/31 09:56:58;;;;;;;8.27;4.30;;;20.80;46.70;;;;;;5034491;28;20487;-71
2021/03/31 09:59:25;;;;;;;7.97;4.63;;;20.80;46.80;;;;;;5034358;28;20029;-74
2021/03/31 10:01:51;;;;;;;6.80;4.20;;;20.80;46.80;;;;;;5034402;28;20116;-73
2021/03/31 10:04:17;;;;;;;7.03;4.05;;;20.90;46.80;;;;;;5033216;28;20064;-71
2021/03/31 10:06:43;;;;;;;6.90;4.05;;;20.90;46.70;;;;;;5034432;28;20018;-73
2021/03/31 10:09:16;;;;;;;6.72;4.03;;;20.90;46.30;;;;;;5033941;28;20502;-73
2021/03/31 10:11:42;;;;;;;8.27;4.45;;;20.90;46.80;;;;;;5034229;28;20083;-70
2021/03/31 10:14:21;;;;;;;7.93;4.30;;;21.00;46.60;;;;;;5034314;28;20105;-74
2021/03/31 10:16:48;;;;;;;6.57;3.83;;;21.00;46.50;;;;;;5034356;28;20056;-74
2021/03/31 10:19:15;;;;;;;6.38;3.85;;;21.00;46.40;;;;;;5032629;28;20029;-74
2021/03/31 10:21:41;;;;;;;7.78;4.25;;;21.10;46.40;;;;;;5032197;28;20553;-71
2021/03/31 10:24:08;;;;;;;6.40;4.00;;;21.10;47.10;;;;;;5032838;28;20026;-74
2021/03/31 10:26:38;;;;;;;6.03;3.58;;;21.10;45.80;;;;;;5034079;28;20028;-70
2021/03/31 10:29:22;;;;;;;8.00;4.05;;;21.20;45.80;;;;;;5033591;28;20025;-70
2021/03/31 10:31:48;;;;;;;6.97;3.70;;;21.20;45.80;;;;;;5033922;28;20495;-73
2021/03/31 10:34:17;;;;;;;7.00;3.72;;;21.20;45.80;;;;;;5033292;28;20406;-74
2021/03/31 10:47:32;;;;;;;6.88;4.32;;;21.40;45.30;;;;;;5033639;28;20035;-74
2021/03/31 10:50:00;;;;;;;6.85;3.72;;;21.40;45.40;;;;;;5032087;28;20323;-74
2021/03/31 10:52:29;;;;;;;7.38;3.70;;;21.40;45.10;;;;;;5032286;28;20030;-73
2021/03/31 10:54:56;;;;;;;6.22;3.92;;;21.50;45.10;;;;;;5033538;28;20095;-74
2021/03/31 10:57:21;;;;;;;6.53;3.75;;;21.50;45.30;;;;;;5032040;28;20120;-70
2021/03/31 10:59:47;;;;;;;6.65;3.42;;;21.50;44.90;;;;;;5033044;28;20105;-74
2021/03/31 11:02:12;;;;;;;6.85;3.83;;;21.50;45.00;;;;;;5032175;28;20479;-74
2021/03/31 11:04:38;;;;;;;6.13;3.85;;;21.60;45.00;;;;;;5029148;28;20087;-74
2021/03/31 11:07:04;;;;;;;7.28;4.13;;;21.60;44.60;;;;;;5022097;28;20044;-71
2021/03/31 11:09:29;;;;;;;6.80;3.67;;;21.60;44.70;;;;;;5025438;28;20072;-73
2021/03/31 11:11:56;;;;;;;9.13;3.80;;;21.70;44.50;;;;;;5019291;28;20515;-73
2021/03/31 11:14:22;;;;;;;9.82;4.07;;;21.60;44.30;;;;;;5025636;28;20030;-74
2021/03/31 11:17:02;;;;;;;8.02;3.90;;;21.60;44.50;;;;;;5014020;28;20041;-74
2021/03/31 11:27:40;;;;;;;7.53;3.80;;;21.80;44.30;;;;;;5013160;28;20056;-75
2021/03/31 11:30:10;;;;;;;7.53;4.07;;;21.90;43.90;;;;;;5012838;28;20491;-72
2021/03/31 11:32:37;;;;;;;7.53;3.78;;;21.90;44.00;;;;;;5013057;28;20022;-72
2021/03/31 11:35:03;;;;;;;7.32;3.78;;;22.00;44.00;;;;;;5013000;28;20061;-75
2021/03/31 11:37:29;;;;;;;7.57;3.67;;;22.00;44.00;;;;;;5011463;28;20033;-73
2021/03/31 11:39:54;;;;;;;6.55;3.42;;;22.00;43.90;;;;;;5012581;28;20029;-74
2021/03/31 11:42:20;;;;;;;7.25;3.92;;;22.10;43.90;;;;;;5012918;28;20387;-74
2021/03/31 11:44:45;;;;;;;7.00;3.72;;;22.10;44.30;;;;;;5011459;28;20025;-73
2021/03/31 11:47:11;;;;;;;8.30;3.80;;;22.10;43.60;;;;;;5012643;28;20451;-74
2021/03/31 11:49:37;;;;;;;6.47;3.40;;;22.10;43.40;;;;;;5022338;28;20034;-71
2021/03/31 11:52:03;;;;;;;6.95;3.72;;;22.10;43.20;;;;;;5029036;28;20510;-72
2021/03/31 11:54:28;;;;;;;9.75;3.72;;;22.10;43.80;;;;;;5012476;28;20376;-74
2021/03/31 11:56:54;;;;;;;12.00;4.35;;;22.20;43.40;;;;;;5019902;28;20037;-74
2021/03/31 11:59:20;;;;;;;9.30;3.97;;;22.20;43.20;;;;;;5022459;28;20030;-75
2021/03/31 12:01:45;;;;;;;10.30;4.07;;;22.20;43.40;;;;;;5024755;28;20508;-75
2021/03/31 12:04:11;;;;;;;9.75;4.15;;;22.20;43.30;;;;;;5023237;28;20036;-74
2021/03/31 12:06:37;;;;;;;7.82;4.07;;;22.20;43.20;;;;;;5029892;28;20116;-75
2021/03/31 12:09:06;;;;;;;8.32;4.75;;;22.20;43.30;;;;;;5020782;28;20060;-75
2021/03/31 12:11:31;;;;;;;12.38;6.38;;;22.20;43.00;;;;;;5027641;28;20108;-72
2021/03/31 12:13:57;;;;;;;32.42;8.25;;;22.30;43.20;;;;;;5016668;28;20105;-73
2021/03/31 12:16:22;;;;;;;15.23;8.05;;;22.30;42.60;;;;;;5012381;28;20510;-76
2021/03/31 12:18:48;;;;;;;14.60;8.20;;;22.40;43.00;;;;;;5020690;28;20083;-75
2021/03/31 12:21:13;;;;;;;14.27;9.40;;;22.40;42.20;;;;;;5021158;28;20419;-74
2021/03/31 12:23:39;;;;;;;15.25;9.05;;;22.50;42.60;;;;;;5019412;28;20059;-74
2021/03/31 12:26:05;;;;;;;13.65;7.57;;;22.40;42.20;;;;;;5016352;28;20034;-73
2021/03/31 12:28:34;;;;;;;11.77;7.40;;;22.40;41.70;;;;;;5013695;28;20066;-74
2021/03/31 12:30:59;;;;;;;13.35;7.25;;;22.50;41.70;;;;;;5013084;28;20392;-73
2021/03/31 12:33:26;;;;;;;12.85;7.50;;;22.50;41.20;;;;;;5010956;28;20021;-75
2021/03/31 12:35:51;;;;;;;13.50;7.13;;;22.50;41.00;;;;;;5011839;28;20453;-74
2021/03/31 12:38:20;;;;;;;14.90;7.30;;;22.40;41.30;;;;;;5028783;28;20049;-72
2021/03/31 12:40:46;;;;;;;12.88;7.25;;;22.50;40.80;;;;;;5030193;28;20024;-75
2021/03/31 12:43:11;;;;;;;11.32;7.25;;;22.50;40.80;;;;;;5010803;28;20022;-73
2021/03/31 12:45:37;;;;;;;11.73;6.72;;;22.50;40.70;;;;;;5012109;28;20040;-73
2021/03/31 12:48:02;;;;;;;11.40;6.53;;;22.50;40.70;;;;;;5029985;28;20034;-73
2021/03/31 12:50:28;;;;;;;10.63;6.70;;;22.50;40.90;;;;;;5012649;28;20061;-73
2021/03/31 12:52:58;;;;;;;14.02;6.90;;;22.50;40.90;;;;;;5028153;28;20108;-73
2021/03/31 12:55:33;;;;;;;11.35;6.60;;;22.50;41.20;;;;;;5030017;28;20091;-74
2021/03/31 12:58:04;;;;;;;11.55;7.13;;;22.50;41.50;;;;;;5031181;28;20029;-73
2021/03/31 13:00:29;;;;;;;10.95;7.07;;;22.40;40.80;;;;;;5029755;28;20071;-73
2021/03/31 13:02:55;;;;;;;11.55;6.32;;;22.40;41.20;;;;;;5029261;28;20100;-73
2021/03/31 13:05:21;;;;;;;11.65;6.20;;;22.30;41.20;;;;;;5030276;28;20090;-75
2021/03/31 13:07:46;;;;;;;10.25;6.20;;;22.30;41.70;;;;;;5011742;28;20030;-73
2021/03/31 13:10:13;;;;;;;11.27;6.30;;;22.20;42.20;;;;;;5010292;28;20029;-73
2021/03/31 13:12:54;;;;;;;9.68;5.63;;;22.10;42.70;;;;;;5015692;28;20061;-69